Terminal Aerodrome Forecast
Issued by NWS

Home | Current Version | Previous Version | Text Only | Print | Product List | Glossary On
Versions: 1 2 3 4 5 6 7 8 9 10 11 12 13 14 15 16 17 18
000
FTUS41 KBTV 270525
TAFSLK
TAF
KSLK 270525Z 2706/2806 05008KT P6SM SCT040 OVC110
     FM271200 03009KT P6SM SCT030 OVC050
     FM271700 02011G20KT 1SM -SN BR BKN010 OVC025
     FM272300 01010G18KT 2SM -SHSN BR BKN025 OVC035
     FM280300 01009KT 1SM BR VCSH OVC030=

USA.gov is the U.S. government's official web portal to all federal, state and local government web resources and services.